Time;durP1;ratioP1;P1;durP2;ratioP2;P2;SDS_P1;SDS_P2;PMS_P1;PMS_P2;Temp;Humidity;BMP_temperature;BMP_pressure;BME280_temperature;BME280_humidity;BME280_pressure;Samples;Min_cycle;Max_cycle;Signal;HPM_P1;HPM_P2
2023/07/11 00:00:00;;;;;;;2.83;0.57;;;;;;;14.80;100.00;99689.94;5043192;28;20497;-75
2023/07/11 00:02:26;;;;;;;1.27;0.52;;;;;;;14.79;100.00;99685.59;5043157;28;20512;-75
2023/07/11 00:04:52;;;;;;;9.18;0.90;;;;;;;14.76;100.00;99681.50;5049597;28;20040;-77
2023/07/11 00:07:18;;;;;;;1.92;0.47;;;;;;;14.77;100.00;99675.16;5049027;28;20508;-77
2023/07/11 00:09:47;;;;;;;2.47;0.70;;;;;;;14.80;100.00;99676.63;5031994;28;20115;-79
2023/07/11 00:12:14;;;;;;;3.42;0.95;;;;;;;14.79;100.00;99673.16;5047827;28;20033;-80
2023/07/11 00:14:40;;;;;;;4.82;0.70;;;;;;;14.80;100.00;99677.47;5040266;28;20437;-80
2023/07/11 00:17:06;;;;;;;6.78;0.77;;;;;;;14.80;100.00;99666.81;5027185;28;20045;-80
2023/07/11 00:19:52;;;;;;;5.25;1.23;;;;;;;14.82;100.00;99674.59;5052768;28;20086;-80
2023/07/11 00:22:19;;;;;;;3.40;0.85;;;;;;;14.81;100.00;99675.63;5038382;28;20033;-80
2023/07/11 00:24:45;;;;;;;3.17;1.10;;;;;;;14.80;100.00;99668.66;5028945;28;20106;-80
2023/07/11 00:27:11;;;;;;;3.60;0.90;;;;;;;14.83;100.00;99660.28;5043518;28;20031;-79
2023/07/11 00:29:38;;;;;;;5.15;1.52;;;;;;;14.85;100.00;99652.94;5023621;28;20032;-79
2023/07/11 00:32:04;;;;;;;6.07;1.20;;;;;;;14.90;100.00;99655.03;5029176;28;20397;-80
2023/07/11 00:34:30;;;;;;;7.10;1.27;;;;;;;14.91;100.00;99656.69;5046863;28;20063;-80
2023/07/11 00:36:56;;;;;;;3.40;1.02;;;;;;;14.94;100.00;99651.78;5021033;28;20044;-80
2023/07/11 00:39:23;;;;;;;3.92;1.20;;;;;;;14.95;100.00;99660.59;5034367;28;20102;-80
2023/07/11 00:41:49;;;;;;;5.03;1.00;;;;;;;14.94;100.00;99650.97;5028891;28;20132;-80
2023/07/11 00:44:16;;;;;;;2.30;0.70;;;;;;;14.98;100.00;99654.88;5019434;28;20481;-80
2023/07/11 00:46:43;;;;;;;3.72;0.95;;;;;;;14.98;100.00;99646.91;5019861;28;20136;-80
2023/07/11 00:49:12;;;;;;;5.55;1.35;;;;;;;14.99;100.00;99651.19;5051972;28;20102;-80
2023/07/11 00:51:45;;;;;;;2.63;0.90;;;;;;;15.00;100.00;99648.34;5051925;28;20622;-79
2023/07/11 00:54:14;;;;;;;5.13;1.15;;;;;;;15.01;100.00;99649.19;5038907;28;20033;-77
2023/07/11 00:56:44;;;;;;;4.95;1.25;;;;;;;14.98;100.00;99641.59;5047909;28;20057;-80
2023/07/11 00:59:12;;;;;;;8.27;1.33;;;;;;;14.96;100.00;99643.59;5018623;28;20127;-80
2023/07/11 01:01:38;;;;;;;5.43;0.70;;;;;;;14.92;100.00;99653.84;5068346;28;20029;-79
2023/07/11 01:04:08;;;;;;;1.83;0.65;;;;;;;14.94;100.00;99653.66;5034660;28;20031;-79
2023/07/11 01:06:34;;;;;;;3.72;0.98;;;;;;;14.94;100.00;99656.31;5034096;28;20537;-80
2023/07/11 01:09:04;;;;;;;6.57;1.40;;;;;;;14.98;100.00;99655.72;5050905;28;20111;-80
2023/07/11 01:11:48;;;;;;;1.65;0.70;;;;;;;14.98;100.00;99647.75;5051674;28;20055;-79
2023/07/11 01:14:13;;;;;;;4.43;1.00;;;;;;;14.94;100.00;99651.78;5044066;28;20028;-80
2023/07/11 01:16:44;;;;;;;3.67;0.82;;;;;;;14.98;100.00;99649.56;5018067;28;20554;-79
2023/07/11 01:19:10;;;;;;;3.42;1.10;;;;;;;14.93;100.00;99642.16;5049821;28;20064;-79
2023/07/11 01:21:35;;;;;;;2.80;0.82;;;;;;;14.93;100.00;99647.50;5067726;28;20086;-80
2023/07/11 01:24:02;;;;;;;3.00;1.25;;;;;;;14.95;100.00;99645.47;5033970;28;20032;-80
2023/07/11 01:26:29;;;;;;;4.78;1.10;;;;;;;14.95;100.00;99649.97;5031236;28;20548;-79
2023/07/11 01:28:56;;;;;;;5.20;1.00;;;;;;;14.93;100.00;99636.84;5046672;28;20044;-81
2023/07/11 01:31:22;;;;;;;3.22;0.90;;;;;;;14.93;100.00;99642.16;5004932;28;20448;-79
2023/07/11 01:33:48;;;;;;;2.28;0.90;;;;;;;14.92;100.00;99639.69;5066223;28;20068;-81
2023/07/11 01:36:15;;;;;;;3.25;0.80;;;;;;;14.92;100.00;99634.38;5015751;28;20503;-77
2023/07/11 01:38:42;;;;;;;3.97;0.80;;;;;;;14.91;100.00;99624.75;5032249;28;20116;-76
2023/07/11 01:41:08;;;;;;;3.58;1.17;;;;;;;14.90;100.00;99626.59;5065599;28;20029;-80
2023/07/11 01:43:36;;;;;;;2.88;0.88;;;;;;;14.89;100.00;99619.63;5043664;28;20037;-81
2023/07/11 01:46:03;;;;;;;4.38;0.93;;;;;;;14.91;100.00;99614.91;5041614;28;20029;-80
2023/07/11 01:48:29;;;;;;;6.63;0.90;;;;;;;14.92;100.00;99619.25;5037255;28;20033;-80
2023/07/11 01:50:55;;;;;;;5.88;1.10;;;;;;;14.92;100.00;99621.06;5030009;28;20047;-77
2023/07/11 01:53:21;;;;;;;2.67;0.80;;;;;;;14.90;100.00;99615.94;5043874;28;20037;-77
2023/07/11 01:55:58;;;;;;;2.67;0.80;;;;;;;14.91;100.00;99614.13;5031245;28;20033;-79
2023/07/11 01:58:25;;;;;;;6.43;1.08;;;;;;;14.86;100.00;99617.31;5036939;28;20041;-80
2023/07/11 02:00:51;;;;;;;5.78;1.13;;;;;;;14.82;100.00;99611.59;5032747;28;20036;-80
2023/07/11 02:03:17;;;;;;;5.50;1.02;;;;;;;14.82;100.00;99614.25;5034080;28;20076;-80
2023/07/11 02:05:43;;;;;;;5.55;0.90;;;;;;;14.80;100.00;99615.44;5064580;28;20041;-80
2023/07/11 02:08:09;;;;;;;5.43;0.98;;;;;;;14.75;100.00;99614.16;5050432;28;20068;-80
2023/07/11 02:10:35;;;;;;;7.50;1.05;;;;;;;14.72;100.00;99617.22;5033652;28;20116;-80
2023/07/11 02:13:02;;;;;;;3.33;0.82;;;;;;;14.72;100.00;99605.75;5017510;28;20060;-80
2023/07/11 02:15:40;;;;;;;2.97;1.02;;;;;;;14.71;100.00;99607.59;5045397;28;20160;-81
2023/07/11 02:18:05;;;;;;;5.00;1.08;;;;;;;14.69;100.00;99611.44;5047155;28;20033;-80
2023/07/11 02:20:31;;;;;;;2.13;0.90;;;;;;;14.65;100.00;99597.72;5048787;28;20052;-80
2023/07/11 02:22:59;;;;;;;4.50;0.95;;;;;;;14.65;100.00;99611.03;5045756;28;20112;-80
2023/07/11 02:25:26;;;;;;;4.88;0.90;;;;;;;14.68;100.00;99610.63;5031237;28;20422;-81
2023/07/11 02:27:52;;;;;;;2.95;0.68;;;;;;;14.62;100.00;99611.41;5028066;28;20041;-81
2023/07/11 02:30:18;;;;;;;3.72;0.82;;;;;;;14.54;100.00;99609.69;5049698;28;20039;-79
2023/07/11 02:32:43;;;;;;;3.53;0.98;;;;;;;14.51;100.00;99610.06;5050768;28;20037;-80
2023/07/11 02:35:10;;;;;;;5.93;1.05;;;;;;;14.50;100.00;99603.13;5048213;28;20029;-80
2023/07/11 02:37:36;;;;;;;4.63;1.30;;;;;;;14.51;100.00;99594.94;5058111;28;20040;-80
2023/07/11 02:40:02;;;;;;;3.60;1.02;;;;;;;14.55;100.00;99603.38;5030647;28;20064;-81
2023/07/11 02:42:28;;;;;;;2.63;1.38;;;;;;;14.53;100.00;99608.03;5046849;28;20083;-79
2023/07/11 02:44:54;;;;;;;4.47;1.27;;;;;;;14.53;100.00;99600.06;5030014;28;20037;-80
2023/07/11 02:47:20;;;;;;;8.38;1.30;;;;;;;14.52;100.00;99609.06;5041391;28;20440;-80
2023/07/11 02:49:45;;;;;;;10.15;1.10;;;;;;;14.47;100.00;99609.66;5030747;28;20033;-80
2023/07/11 02:52:11;;;;;;;2.22;0.90;;;;;;;14.45;100.00;99606.34;5042578;28;20033;-80
2023/07/11 02:54:37;;;;;;;4.03;1.02;;;;;;;14.46;100.00;99610.63;5022935;28;20043;-80
2023/07/11 02:57:05;;;;;;;1.33;0.80;;;;;;;14.48;100.00;99608.63;5047805;28;20119;-81
2023/07/11 02:59:31;;;;;;;7.88;0.90;;;;;;;14.44;100.00;99607.38;5015189;28;20135;-80
2023/07/11 03:01:58;;;;;;;3.40;0.77;;;;;;;14.41;100.00;99617.56;5048248;28;20033;-81
2023/07/11 03:04:27;;;;;;;25.88;1.73;;;;;;;14.36;100.00;99610.97;5021029;28;20120;-80
2023/07/11 03:06:58;;;;;;;4.40;1.33;;;;;;;14.29;100.00;99612.72;5045742;28;20112;-80
2023/07/11 03:09:25;;;;;;;2.88;1.50;;;;;;;14.24;100.00;99612.47;5029331;28;20128;-79
2023/07/11 03:11:52;;;;;;;5.72;1.27;;;;;;;14.18;100.00;99610.56;5063279;28;20052;-80
2023/07/11 03:14:19;;;;;;;8.98;1.35;;;;;;;14.11;100.00;99607.88;5024567;28;20047;-80
2023/07/11 03:16:50;;;;;;;1.75;1.02;;;;;;;14.10;100.00;99608.84;5016460;28;20036;-80
2023/07/11 03:19:16;;;;;;;2.05;1.77;;;;;;;14.03;100.00;99600.81;5031819;28;20089;-80
2023/07/11 03:21:41;;;;;;;5.00;1.38;;;;;;;14.05;100.00;99603.31;5031210;28;20033;-79
2023/07/11 03:24:07;;;;;;;6.05;1.70;;;;;;;14.04;100.00;99605.13;5048574;28;20040;-80
2023/07/11 03:26:33;;;;;;;23.02;2.20;;;;;;;14.04;100.00;99601.63;5028467;28;20406;-79
2023/07/11 03:28:59;;;;;;;4.40;1.58;;;;;;;14.05;100.00;99608.63;5032029;28;20028;-80
2023/07/11 03:31:25;;;;;;;8.18;1.48;;;;;;;14.01;100.00;99603.66;5035955;28;20547;-81
2023/07/11 03:33:51;;;;;;;3.92;1.50;;;;;;;14.00;100.00;99612.66;5050746;28;20039;-80
2023/07/11 03:36:17;;;;;;;2.63;1.25;;;;;;;13.99;100.00;99599.53;5033782;28;20033;-81
2023/07/11 03:38:42;;;;;;;2.53;1.40;;;;;;;13.98;100.00;99589.94;5051063;28;20047;-80
2023/07/11 03:41:08;;;;;;;2.50;1.50;;;;;;;13.98;100.00;99597.91;5032744;28;20028;-81
2023/07/11 03:43:34;;;;;;;2.08;1.45;;;;;;;13.99;100.00;99603.03;5032092;28;20043;-80
2023/07/11 03:46:00;;;;;;;5.15;1.65;;;;;;;13.99;100.00;99597.72;5015960;28;20442;-81
2023/07/11 03:48:26;;;;;;;3.90;1.58;;;;;;;14.00;100.00;99598.53;5017402;28;20071;-79
2023/07/11 03:50:52;;;;;;;1.48;1.38;;;;;;;14.01;100.00;99600.19;5015892;28;20029;-79
2023/07/11 03:53:18;;;;;;;3.67;1.48;;;;;;;13.99;100.00;99600.38;5064770;28;20040;-80
2023/07/11 03:55:44;;;;;;;4.28;1.50;;;;;;;14.04;100.00;99598.97;5031347;28;20036;-79
2023/07/11 03:58:10;;;;;;;2.85;1.60;;;;;;;14.07;100.00;99601.25;5046062;28;20043;-79
2023/07/11 04:00:36;;;;;;;3.90;2.08;;;;;;;14.09;100.00;99597.44;5048921;28;20033;-79
2023/07/11 04:03:02;;;;;;;4.15;1.58;;;;;;;14.11;100.00;99603.34;5045561;28;20028;-81
2023/07/11 04:05:29;;;;;;;5.88;1.83;;;;;;;14.16;100.00;99602.78;5030667;28;20024;-79
2023/07/11 04:07:55;;;;;;;4.00;1.85;;;;;;;14.18;100.00;99606.09;5040789;28;20051;-79
2023/07/11 04:10:21;;;;;;;5.38;2.47;;;;;;;14.21;100.00;99599.56;5021358;28;20401;-81
2023/07/11 04:12:47;;;;;;;1.45;1.27;;;;;;;14.20;100.00;99604.06;5028438;28;20030;-81
2023/07/11 04:15:13;;;;;;;3.05;1.70;;;;;;;14.22;100.00;99595.91;5044192;28;20032;-80
2023/07/11 04:17:40;;;;;;;5.75;1.92;;;;;;;14.25;100.00;99603.50;5013778;28;20049;-80
2023/07/11 04:20:07;;;;;;;4.70;1.38;;;;;;;14.23;100.00;99603.69;5032461;28;20749;-77
2023/07/11 04:22:33;;;;;;;4.47;1.77;;;;;;;14.23;100.00;99597.53;5047121;28;20025;-77
2023/07/11 04:24:58;;;;;;;2.90;1.88;;;;;;;14.23;100.00;99598.38;5043021;28;20098;-80
2023/07/11 04:27:25;;;;;;;7.00;1.67;;;;;;;14.24;100.00;99600.00;5045287;28;20182;-81
2023/07/11 04:29:51;;;;;;;3.85;1.80;;;;;;;14.22;100.00;99598.56;5030551;28;20227;-81
2023/07/11 04:32:17;;;;;;;3.20;2.10;;;;;;;14.22;100.00;99607.34;5047349;28;20060;-81
2023/07/11 04:34:43;;;;;;;4.20;1.63;;;;;;;14.21;100.00;99603.06;5047763;28;20504;-80
2023/07/11 04:37:09;;;;;;;5.43;1.90;;;;;;;14.25;100.00;99601.66;5023932;28;20033;-80
2023/07/11 04:39:35;;;;;;;1.70;1.60;;;;;;;14.23;100.00;99603.69;5047132;28;20033;-81
2023/07/11 04:42:01;;;;;;;2.95;1.92;;;;;;;14.25;100.00;99604.31;5047529;28;20033;-80
2023/07/11 04:44:27;;;;;;;2.70;1.58;;;;;;;14.26;100.00;99605.97;5028039;28;20056;-81
2023/07/11 04:46:52;;;;;;;6.43;1.50;;;;;;;14.26;100.00;99597.16;5031723;28;20033;-80
2023/07/11 04:49:18;;;;;;;5.90;1.92;;;;;;;14.25;100.00;99600.84;5038491;28;20589;-80
2023/07/11 04:51:44;;;;;;;2.28;1.10;;;;;;;14.24;100.00;99602.66;5046735;28;20053;-80
2023/07/11 04:54:10;;;;;;;3.88;1.40;;;;;;;14.27;100.00;99602.28;5046597;28;20065;-82
2023/07/11 04:56:40;;;;;;;3.78;1.50;;;;;;;14.32;100.00;99600.88;5046558;28;20033;-81
2023/07/11 04:59:06;;;;;;;1.80;1.15;;;;;;;14.30;100.00;99603.75;5030296;28;20045;-80
2023/07/11 05:01:32;;;;;;;2.63;1.10;;;;;;;14.33;100.00;99610.53;5016590;28;20045;-81
2023/07/11 05:03:58;;;;;;;5.63;1.67;;;;;;;14.33;100.00;99598.06;5016518;28;20041;-81
2023/07/11 05:06:24;;;;;;;4.00;1.17;;;;;;;14.39;100.00;99601.78;5028223;28;20493;-77
2023/07/11 05:08:50;;;;;;;4.22;1.10;;;;;;;14.41;100.00;99599.78;5061398;28;20112;-77
2023/07/11 05:11:18;;;;;;;4.15;1.20;;;;;;;14.44;100.00;99602.06;5047621;28;20087;-79
2023/07/11 05:13:46;;;;;;;6.05;1.50;;;;;;;14.44;100.00;99596.72;5049331;28;20021;-81
2023/07/11 05:16:18;;;;;;;3.35;1.35;;;;;;;14.49;100.00;99606.78;5047468;28;20041;-80
2023/07/11 05:18:46;;;;;;;4.00;1.98;;;;;;;14.49;100.00;99601.47;5039053;28;20036;-81
2023/07/11 05:21:15;;;;;;;8.23;1.52;;;;;;;14.50;100.00;99601.28;5037334;28;20163;-81
2023/07/11 05:23:41;;;;;;;4.30;1.55;;;;;;;14.52;100.00;99604.56;5032034;28;20037;-80
2023/07/11 05:26:07;;;;;;;4.10;1.23;;;;;;;14.56;100.00;99604.16;5017415;28;20032;-80
2023/07/11 05:28:34;;;;;;;3.85;1.38;;;;;;;14.59;100.00;99606.44;5034407;28;20037;-80
2023/07/11 05:31:02;;;;;;;6.18;1.30;;;;;;;14.62;100.00;99604.22;5049562;28;20044;-80
2023/07/11 05:33:28;;;;;;;4.47;1.40;;;;;;;14.62;100.00;99614.06;5047385;28;20041;-80
2023/07/11 05:36:45;;;;;;;5.10;1.30;;;;;;;14.67;100.00;99600.19;5066925;28;20094;-80
2023/07/11 05:38:54;;;;;;;4.20;1.40;;;;;;;14.62;100.00;99612.22;5060066;28;20044;-80
2023/07/11 05:41:20;;;;;;;2.30;1.20;;;;;;;14.62;100.00;99612.22;5031065;28;20033;-80
2023/07/11 05:43:46;;;;;;;2.97;1.02;;;;;;;14.63;100.00;99607.72;5043888;28;20037;-81
2023/07/11 05:46:13;;;;;;;5.15;1.15;;;;;;;14.63;100.00;99610.38;5044523;28;20033;-79
2023/07/11 05:48:39;;;;;;;4.28;1.40;;;;;;;14.62;100.00;99606.09;5030032;28;20037;-79
2023/07/11 05:51:08;;;;;;;5.45;1.65;;;;;;;14.66;100.00;99611.81;5034722;28;20052;-80
2023/07/11 05:53:34;;;;;;;4.88;1.65;;;;;;;14.66;100.00;99606.50;5028159;28;20036;-79
2023/07/11 05:56:00;;;;;;;3.70;1.30;;;;;;;14.66;100.00;99603.84;5018408;28;20037;-81
2023/07/11 05:58:28;;;;;;;5.22;1.48;;;;;;;14.66;100.00;99604.69;5016924;28;20041;-81
2023/07/11 06:00:55;;;;;;;3.28;1.55;;;;;;;14.67;100.00;99610.84;5047146;28;20029;-81
2023/07/11 06:03:23;;;;;;;6.22;1.77;;;;;;;14.71;100.00;99604.09;5045615;28;20060;-80
2023/07/11 06:05:50;;;;;;;6.78;1.70;;;;;;;14.73;100.00;99607.41;5066010;28;20040;-81
2023/07/11 06:08:16;;;;;;;11.05;1.95;;;;;;;14.72;100.00;99606.56;5049546;28;20393;-81
2023/07/11 06:10:43;;;;;;;7.35;2.00;;;;;;;14.78;100.00;99609.47;5050481;28;20044;-81
2023/07/11 06:13:14;;;;;;;6.75;1.92;;;;;;;14.81;100.00;99603.81;5016539;28;20075;-81
2023/07/11 06:15:40;;;;;;;6.25;2.00;;;;;;;14.80;100.00;99610.13;5050124;28;20132;-77
2023/07/11 06:18:06;;;;;;;5.32;1.85;;;;;;;14.84;100.00;99611.41;5030148;28;20551;-77
2023/07/11 06:20:33;;;;;;;5.07;1.58;;;;;;;14.85;100.00;99613.88;5029471;28;20033;-80
2023/07/11 06:22:59;;;;;;;6.93;2.20;;;;;;;14.90;100.00;99615.13;5050713;28;20032;-81
2023/07/11 06:25:25;;;;;;;5.80;1.60;;;;;;;14.93;100.00;99617.38;5051210;28;20071;-79
2023/07/11 06:27:51;;;;;;;4.47;1.63;;;;;;;14.90;100.00;99613.28;5034283;28;20037;-79
2023/07/11 06:30:17;;;;;;;5.22;1.58;;;;;;;14.92;100.00;99615.75;5032273;28;20071;-81
2023/07/11 06:32:43;;;;;;;9.52;1.73;;;;;;;14.91;100.00;99619.44;5050984;28;20638;-80
2023/07/11 06:35:08;;;;;;;6.45;2.10;;;;;;;14.93;100.00;99620.88;5050218;28;20079;-80
2023/07/11 06:37:34;;;;;;;8.48;1.83;;;;;;;14.96;100.00;99617.84;5034749;28;20721;-80
2023/07/11 06:40:00;;;;;;;7.15;1.58;;;;;;;14.96;100.00;99620.50;5032848;28;20401;-80
2023/07/11 06:42:26;;;;;;;5.20;1.60;;;;;;;14.98;100.00;99621.13;5033779;28;20032;-80
2023/07/11 06:44:53;;;;;;;10.50;2.15;;;;;;;15.04;100.00;99619.53;5034012;28;20041;-80
2023/07/11 06:47:19;;;;;;;5.95;1.77;;;;;;;15.07;100.00;99615.63;5050461;28;20434;-80
2023/07/11 06:49:46;;;;;;;3.92;1.10;;;;;;;15.06;100.00;99624.66;5048857;28;20029;-81
2023/07/11 06:52:12;;;;;;;4.65;1.30;;;;;;;14.99;100.00;99622.75;5045578;28;20033;-80
2023/07/11 06:54:38;;;;;;;7.75;1.60;;;;;;;14.96;100.00;99623.16;5045435;28;20063;-81
2023/07/11 06:57:04;;;;;;;5.18;1.55;;;;;;;14.99;100.00;99632.56;5049060;28;20049;-81
2023/07/11 06:59:30;;;;;;;8.13;1.65;;;;;;;15.02;100.00;99626.06;5049872;28;20049;-81
2023/07/11 07:01:56;;;;;;;3.25;1.33;;;;;;;15.06;100.00;99627.31;5048701;28;20423;-81
2023/07/11 07:04:21;;;;;;;5.30;1.50;;;;;;;15.09;100.00;99626.91;5032423;28;20048;-81
2023/07/11 07:06:47;;;;;;;3.35;0.95;;;;;;;15.12;100.00;99629.19;5047563;28;20032;-80
2023/07/11 07:09:13;;;;;;;1.80;1.10;;;;;;;15.13;100.00;99628.16;5033647;28;20493;-81
2023/07/11 07:11:40;;;;;;;3.95;1.05;;;;;;;15.19;100.00;99629.25;5034095;28;20123;-80
2023/07/11 07:14:09;;;;;;;5.65;0.82;;;;;;;15.26;100.00;99632.75;5015976;28;20060;-81
2023/07/11 07:16:39;;;;;;;1.95;0.77;;;;;;;15.28;100.00;99635.22;5031980;28;20090;-81
2023/07/11 07:19:08;;;;;;;2.90;0.60;;;;;;;15.26;100.00;99627.44;5014716;28;20029;-81
2023/07/11 07:21:34;;;;;;;3.70;0.60;;;;;;;15.22;100.00;99632.34;5030551;28;20056;-79
2023/07/11 07:24:00;;;;;;;3.13;1.00;;;;;;;15.28;100.00;99629.91;5031304;28;20071;-79
2023/07/11 07:26:26;;;;;;;7.40;1.20;;;;;;;15.31;100.00;99629.50;5015808;28;20561;-80
2023/07/11 07:28:52;;;;;;;2.90;0.57;;;;;;;15.29;100.00;99632.38;5047147;28;20044;-81
2023/07/11 07:31:17;;;;;;;1.02;0.65;;;;;;;15.35;100.00;99630.78;5031769;28;20037;-80
2023/07/11 07:33:43;;;;;;;3.63;0.60;;;;;;;15.30;100.00;99634.03;5031575;28;20029;-81
2023/07/11 07:36:11;;;;;;;4.20;1.00;;;;;;;15.31;100.00;99634.81;5028225;28;20033;-81
2023/07/11 07:38:39;;;;;;;2.20;0.60;;;;;;;15.33;100.00;99632.81;5046825;28;20041;-80
2023/07/11 07:41:08;;;;;;;1.38;0.88;;;;;;;15.36;100.00;99635.91;5058788;28;20056;-81
2023/07/11 07:43:43;;;;;;;4.55;0.90;;;;;;;15.38;100.00;99636.50;5031982;28;20485;-81
2023/07/11 07:46:17;;;;;;;6.40;0.98;;;;;;;15.39;100.00;99634.69;5010852;28;20053;-81
2023/07/11 07:48:45;;;;;;;4.47;0.95;;;;;;;15.35;100.00;99636.91;5029453;28;20037;-80
2023/07/11 07:51:14;;;;;;;4.38;1.00;;;;;;;15.36;100.00;99630.56;5012453;28;20029;-81
2023/07/11 07:53:41;;;;;;;6.45;1.08;;;;;;;15.42;100.00;99634.28;5040987;28;20048;-81
2023/07/11 07:56:24;;;;;;;3.42;0.88;;;;;;;15.50;100.00;99634.13;5029667;28;20072;-80
2023/07/11 07:58:50;;;;;;;3.25;1.08;;;;;;;15.55;100.00;99635.38;5042027;28;20098;-80
2023/07/11 08:01:18;;;;;;;5.82;0.90;;;;;;;15.59;100.00;99637.44;5031063;28;20072;-80
2023/07/11 08:03:44;;;;;;;4.15;0.90;;;;;;;15.52;100.00;99630.44;5030356;28;20037;-80
2023/07/11 08:06:12;;;;;;;3.42;0.98;;;;;;;15.57;100.00;99631.50;5028215;28;20037;-80
2023/07/11 08:08:39;;;;;;;2.53;0.88;;;;;;;15.61;100.00;99631.91;5026495;28;20043;-81
2023/07/11 08:11:06;;;;;;;3.97;1.02;;;;;;;15.68;100.00;99626.63;5044298;28;20025;-81
2023/07/11 08:13:34;;;;;;;4.13;1.20;;;;;;;15.71;100.00;99627.06;5043521;28;20037;-81
2023/07/11 08:16:01;;;;;;;1.95;0.85;;;;;;;15.72;100.00;99627.84;5045606;28;20064;-80
2023/07/11 08:18:28;;;;;;;3.03;0.70;;;;;;;15.63;100.00;99627.22;5018405;28;20071;-79
2023/07/11 08:20:54;;;;;;;3.88;0.70;;;;;;;15.54;100.00;99637.22;5045397;28;20033;-79
2023/07/11 08:23:21;;;;;;;3.95;0.70;;;;;;;15.52;100.00;99631.28;5043908;28;20045;-81
2023/07/11 08:25:54;;;;;;;5.63;1.52;;;;;;;15.53;100.00;99626.78;5045054;28;20076;-81
2023/07/11 08:28:20;;;;;;;2.30;1.08;;;;;;;15.61;100.00;99618.59;5019785;28;20037;-80
2023/07/11 08:30:47;;;;;;;2.20;0.70;;;;;;;15.68;100.00;99616.81;5045338;28;20037;-79
2023/07/11 08:33:14;;;;;;;4.63;0.70;;;;;;;15.81;100.00;99620.53;5046551;28;20056;-78
2023/07/11 08:35:40;;;;;;;2.63;0.70;;;;;;;15.86;100.00;99621.56;5035046;28;20086;-80
2023/07/11 08:38:11;;;;;;;7.60;0.63;;;;;;;15.93;100.00;99618.94;5013349;28;20049;-79
2023/07/11 08:40:45;;;;;;;2.83;0.73;;;;;;;16.12;100.00;99625.38;5027618;28;20037;-80
2023/07/11 08:43:19;;;;;;;2.10;0.52;;;;;;;16.27;100.00;99616.38;5030782;28;20033;-79
2023/07/11 08:45:55;;;;;;;2.28;0.75;;;;;;;16.41;100.00;99613.72;5036786;28;20037;-80
2023/07/11 08:48:34;;;;;;;1.33;0.60;;;;;;;16.52;100.00;99622.97;5014846;28;20045;-79
2023/07/11 08:51:08;;;;;;;1.63;0.50;;;;;;;16.58;100.00;99614.97;5026913;28;20035;-81
2023/07/11 08:53:40;;;;;;;3.53;0.70;;;;;;;16.63;100.00;99619.69;5031616;28;20037;-79
2023/07/11 08:56:28;;;;;;;6.88;0.63;;;;;;;16.76;100.00;99610.88;5030126;28;20036;-77
2023/07/11 08:58:59;;;;;;;1.77;0.50;;;;;;;16.77;100.00;99609.03;5031515;28;20132;-77
2023/07/11 09:01:48;;;;;;;2.20;0.50;;;;;;;16.71;100.00;99608.81;5043188;28;20106;-80
2023/07/11 09:04:17;;;;;;;2.72;0.52;;;;;;;16.66;100.00;99605.13;5014042;28;20037;-80
2023/07/11 09:06:52;;;;;;;1.98;0.40;;;;;;;16.74;100.00;99612.91;5015559;28;20103;-79
2023/07/11 09:09:18;;;;;;;2.15;0.50;;;;;;;16.73;100.00;99608.63;5034511;28;20119;-79
2023/07/11 09:12:16;;;;;;;5.40;0.40;;;;;;;16.86;100.00;99618.47;5057049;28;20029;-79
2023/07/11 09:15:00;;;;;;;3.10;0.60;;;;;;;16.74;100.00;99615.59;5047362;28;20037;-79
2023/07/11 09:17:49;;;;;;;1.85;0.52;;;;;;;16.72;100.00;99610.44;5028734;28;20087;-79
2023/07/11 09:20:43;;;;;;;3.35;0.55;;;;;;;16.87;100.00;99614.75;5056762;28;20053;-80
2023/07/11 09:23:25;;;;;;;1.70;0.45;;;;;;;16.99;100.00;99613.09;5025643;28;20049;-79
2023/07/11 09:25:57;;;;;;;3.03;0.65;;;;;;;17.09;100.00;99615.38;5033175;28;20131;-79
2023/07/11 09:28:27;;;;;;;1.85;0.55;;;;;;;17.29;100.00;99616.38;5041046;28;20037;-80
2023/07/11 09:30:59;;;;;;;4.10;0.60;;;;;;;17.28;100.00;99617.41;5066763;28;20116;-81
2023/07/11 09:33:37;;;;;;;3.60;0.60;;;;;;;17.20;100.00;99615.78;5066493;28;20043;-81
2023/07/11 09:36:13;;;;;;;4.53;0.47;;;;;;;17.18;100.00;99618.66;5030572;28;20060;-79
2023/07/11 09:38:46;;;;;;;1.38;0.43;;;;;;;17.31;100.00;99608.97;5045280;28;20058;-76
2023/07/11 09:41:25;;;;;;;3.70;0.60;;;;;;;17.30;100.00;99610.81;5047168;28;20967;-81
2023/07/11 09:43:51;;;;;;;3.40;0.60;;;;;;;17.19;100.00;99608.78;5064148;28;20032;-79
2023/07/11 09:46:22;;;;;;;4.43;0.50;;;;;;;17.16;100.00;99614.53;5031364;28;20478;-80
2023/07/11 09:48:53;;;;;;;3.03;0.60;;;;;;;17.11;100.00;99617.84;5048389;28;20025;-81
2023/07/11 09:51:30;;;;;;;3.15;0.40;;;;;;;17.05;100.00;99619.47;5034498;28;20044;-82
2023/07/11 09:53:56;;;;;;;4.22;0.47;;;;;;;16.91;100.00;99620.50;5050247;28;20032;-80
2023/07/11 09:56:24;;;;;;;1.20;0.50;;;;;;;16.88;100.00;99620.94;5048621;28;20057;-79
2023/07/11 09:58:52;;;;;;;3.85;0.50;;;;;;;16.83;100.00;99613.53;5052269;28;20124;-79
2023/07/11 10:01:27;;;;;;;8.38;0.60;;;;;;;16.81;100.00;99626.25;5015579;28;20033;-79
2023/07/11 10:03:58;;;;;;;3.22;0.88;;;;;;;16.86;100.00;99627.31;5046823;28;20091;-80
2023/07/11 10:06:30;;;;;;;1.63;0.40;;;;;;;16.90;100.00;99626.88;5048782;28;20072;-82
2023/07/11 10:08:55;;;;;;;2.35;0.50;;;;;;;16.90;100.00;99610.88;5037799;28;20516;-81
2023/07/11 10:11:22;;;;;;;4.28;0.75;;;;;;;17.02;100.00;99622.56;5045384;28;20029;-78
2023/07/11 10:13:56;;;;;;;3.22;0.73;;;;;;;17.16;100.00;99618.03;5049499;28;20481;-80
2023/07/11 10:16:22;;;;;;;5.00;0.50;;;;;;;17.19;100.00;99606.94;5050760;28;20024;-81
2023/07/11 10:18:48;;;;;;;2.28;0.63;;;;;;;17.25;100.00;99615.16;5056595;28;20034;-77
2023/07/11 10:21:22;;;;;;;3.80;0.75;;;;;;;17.31;100.00;99617.00;5021924;28;20382;-76
2023/07/11 10:23:52;;;;;;;2.58;0.50;;;;;;;17.29;100.00;99622.53;5061320;28;20028;-76
2023/07/11 10:26:22;;;;;;;3.35;0.50;;;;;;;17.48;100.00;99617.34;5044830;28;20041;-77
2023/07/11 10:29:19;;;;;;;3.50;0.50;;;;;;;17.79;100.00;99614.97;5034535;28;20103;-75
2023/07/11 10:32:04;;;;;;;5.88;0.57;;;;;;;18.00;100.00;99611.16;5048594;28;20045;-75
2023/07/11 10:34:45;;;;;;;6.43;1.35;;;;;;;17.90;100.00;99602.78;5046603;28;20477;-75
2023/07/11 10:37:26;;;;;;;5.13;0.52;;;;;;;17.86;100.00;99613.06;5032680;28;20064;-76
2023/07/11 10:40:16;;;;;;;7.18;0.60;;;;;;;17.66;100.00;99611.31;5047636;28;20123;-76
2023/07/11 10:42:59;;;;;;;4.00;0.80;;;;;;;17.46;100.00;99628.25;5048192;28;20048;-76
2023/07/11 10:45:27;;;;;;;2.67;0.45;;;;;;;17.05;100.00;99627.47;5044442;28;20044;-76
2023/07/11 10:48:02;;;;;;;5.35;0.75;;;;;;;16.80;100.00;99627.28;5042718;28;20049;-76
2023/07/11 10:50:37;;;;;;;1.42;0.38;;;;;;;16.67;100.00;99620.09;5027546;28;20032;-76
2023/07/11 10:53:28;;;;;;;4.07;0.70;;;;;;;16.63;100.00;99616.22;5040579;28;20033;-76
2023/07/11 10:56:21;;;;;;;2.92;0.52;;;;;;;16.84;100.00;99621.34;5051719;28;20063;-76
2023/07/11 10:58:47;;;;;;;4.03;0.50;;;;;;;17.16;100.00;99618.03;5047591;28;20045;-76
2023/07/11 11:01:15;;;;;;;3.65;0.80;;;;;;;17.46;100.00;99617.56;5033853;28;20138;-76
2023/07/11 11:03:50;;;;;;;5.25;0.52;;;;;;;17.62;100.00;99607.44;5065398;28;20039;-77
2023/07/11 11:06:24;;;;;;;8.70;1.05;;;;;;;17.83;100.00;99600.97;5051264;28;20363;-77
2023/07/11 11:09:14;;;;;;;4.45;1.15;;;;;;;18.06;100.00;99604.94;5048272;28;20420;-76
2023/07/11 11:11:43;;;;;;;5.13;0.60;;;;;;;18.11;100.00;99604.28;5042702;28;20647;-76
2023/07/11 11:14:19;;;;;;;6.20;0.80;;;;;;;18.00;100.00;99605.00;5044422;28;20033;-76
2023/07/11 11:17:21;;;;;;;9.40;0.60;;;;;;;17.96;100.00;99613.41;5041689;28;20211;-75
2023/07/11 11:20:03;;;;;;;0.98;0.30;;;;;;;18.08;100.00;99602.88;5028618;28;20040;-75
2023/07/11 11:22:57;;;;;;;2.95;0.45;;;;;;;18.26;100.00;99600.53;5042002;28;20045;-76
2023/07/11 11:25:27;;;;;;;2.78;0.40;;;;;;;18.50;100.00;99598.09;5057425;28;20040;-76
2023/07/11 11:28:23;;;;;;;3.78;0.57;;;;;;;18.78;100.00;99596.81;5068653;28;20032;-76
2023/07/11 11:31:15;;;;;;;6.75;1.15;;;;;;;18.96;100.00;99593.38;5049500;28;20068;-76
2023/07/11 11:33:52;;;;;;;3.97;0.68;;;;;;;19.06;100.00;99588.31;5053891;28;20037;-77